Time;durP1;ratioP1;P1;durP2;ratioP2;P2;SDS_P1;SDS_P2;PMS_P1;PMS_P2;Temp;Humidity;BMP_temperature;BMP_pressure;BME280_temperature;BME280_humidity;BME280_pressure;Samples;Min_cycle;Max_cycle;Signal;HPM_P1;HPM_P2
2023/09/06 00:00:48;;;;;;;11.73;10.50;;;;;;;;;;10247895;22;20561;-72
2023/09/06 00:05:45;;;;;;;11.52;10.20;;;;;;;;;;10170952;28;20398;-72
2023/09/06 00:15:48;;;;;;;12.55;10.77;;;;;;;;;;10695599;23;20045;-72
2023/09/06 00:20:45;;;;;;;10.70;9.80;;;;;;;;;;10260543;28;20087;-73
2023/09/06 00:25:41;;;;;;;10.95;9.95;;;;;;;;;;10261929;28;20076;-73
2023/09/06 00:30:37;;;;;;;13.43;10.30;;;;;;;;;;10266664;28;20448;-73
2023/09/06 00:35:34;;;;;;;11.05;9.85;;;;;;;;;;10242598;28;20053;-73
2023/09/06 00:40:31;;;;;;;10.68;9.73;;;;;;;;;;10255611;28;20567;-73
2023/09/06 00:45:28;;;;;;;10.60;9.52;;;;;;;;;;10260859;28;20531;-73
2023/09/06 00:50:28;;;;;;;10.32;9.38;;;;;;;;;;10261780;28;20128;-73
2023/09/06 00:55:24;;;;;;;9.70;8.77;;;;;;;;;;10257388;28;20536;-73
2023/09/06 01:00:24;;;;;;;9.82;8.93;;;;;;;;;;10242624;28;20200;-73
2023/09/06 01:05:22;;;;;;;9.82;9.02;;;;;;;;;;10257293;28;20049;-73
2023/09/06 01:15:31;;;;;;;11.13;9.93;;;;;;;;;;10208558;26;20042;-72
2023/09/06 01:20:33;;;;;;;9.98;9.10;;;;;;;;;;10220566;28;20060;-73
2023/09/06 01:25:29;;;;;;;;;;;;;;;;;;10230334;28;20516;-72
2023/09/06 01:30:29;;;;;;;9.55;8.63;;;;;;;;;;10232087;28;19932;-72
2023/09/06 01:35:26;;;;;;;9.60;8.80;;;;;;;;;;10219179;28;20137;-72
2023/09/06 01:40:26;;;;;;;9.73;8.93;;;;;;;;;;10229996;28;20563;-72
2023/09/06 01:45:22;;;;;;;10.23;9.20;;;;;;;;;;10227876;28;20085;-71
2023/09/06 01:50:19;;;;;;;9.85;8.90;;;;;;;;;;10216697;28;20045;-72
2023/09/06 01:55:16;;;;;;;9.85;8.95;;;;;;;;;;10233033;28;20053;-72
2023/09/06 02:00:19;;;;;;;10.52;9.38;;;;;;;;;;10230703;28;20506;-73
2023/09/06 02:05:15;;;;;;;11.07;10.07;;;;;;;;;;10234456;28;20270;-72
2023/09/06 02:10:12;;;;;;;10.32;9.40;;;;;;;;;;10234331;28;20463;-72
2023/09/06 02:15:08;;;;;;;10.80;9.80;;;;;;;;;;10220887;28;20049;-72
2023/09/06 02:25:12;;;;;;;10.20;9.23;;;;;;;;;;10231552;28;20045;-71
2023/09/06 02:30:08;;;;;;;11.98;10.13;;;;;;;;;;10232755;28;20128;-71
2023/09/06 02:35:08;;;;;;;11.73;10.50;;;;;;;;;;10228484;28;20057;-70
2023/09/06 02:40:12;;;;;;;11.07;9.25;;;;;;;;;;10219870;28;20048;-71
2023/09/06 02:45:10;;;;;;;11.00;9.90;;;;;;;;;;10223660;28;20416;-72
2023/09/06 02:50:06;;;;;;;9.88;9.07;;;;;;;;;;10222285;28;20084;-72
2023/09/06 02:55:05;;;;;;;11.10;10.20;;;;;;;;;;10227991;28;20116;-71
2023/09/06 03:00:08;;;;;;;11.25;10.35;;;;;;;;;;10224047;28;20471;-70
2023/09/06 03:05:05;;;;;;;10.80;10.00;;;;;;;;;;10233827;28;20137;-72
2023/09/06 03:15:08;;;;;;;10.52;9.73;;;;;;;;;;10254288;28;20049;-70
2023/09/06 03:20:31;;;;;;;11.32;10.50;;;;;;;;;;10257882;28;20757;-71
2023/09/06 03:25:28;;;;;;;12.20;10.98;;;;;;;;;;10260349;28;20041;-71
2023/09/06 03:30:24;;;;;;;12.15;11.05;;;;;;;;;;10260697;28;20049;-72
2023/09/06 03:35:22;;;;;;;10.73;9.73;;;;;;;;;;10271907;28;20427;-72
2023/09/06 03:40:25;;;;;;;10.38;9.48;;;;;;;;;;10262603;28;20150;-72
2023/09/06 03:45:21;;;;;;;10.73;9.90;;;;;;;;;;10267925;28;20056;-73
2023/09/06 04:50:44;;;;;;;13.57;12.48;;;;;;;;;;10205917;28;20076;-74
2023/09/06 05:02:47;;;;;;;14.20;13.00;;;;;;;;;;10206318;28;20048;-74
2023/09/06 05:13:52;;;;;;;14.40;13.30;;;;;;;;;;10307449;22;20074;-74
2023/09/06 05:19:01;;;;;;;14.05;12.95;;;;;;;;;;10148458;28;20549;-74
2023/09/06 05:24:01;;;;;;;15.80;14.43;;;;;;;;;;10168170;28;20169;-76
2023/09/06 05:28:57;;;;;;;15.05;13.85;;;;;;;;;;10163958;28;20532;-76
2023/09/06 05:33:53;;;;;;;13.98;12.77;;;;;;;;;;10176460;28;20603;-76
2023/09/06 05:38:50;;;;;;;14.68;13.40;;;;;;;;;;10178518;28;20046;-76
2023/09/06 05:43:46;;;;;;;14.30;13.20;;;;;;;;;;10178167;28;20046;-76
2023/09/06 05:48:43;;;;;;;13.85;12.65;;;;;;;;;;10174610;28;20073;-76
2023/09/06 05:53:39;;;;;;;14.75;13.30;;;;;;;;;;10156293;28;20049;-76
2023/09/06 05:58:38;;;;;;;16.10;14.32;;;;;;;;;;10182836;28;20421;-76
2023/09/06 06:03:36;;;;;;;14.75;12.93;;;;;;;;;;10186634;28;20045;-76
2023/09/06 06:08:32;;;;;;;14.82;13.60;;;;;;;;;;10175826;28;20764;-76
2023/09/06 06:13:29;;;;;;;14.45;13.23;;;;;;;;;;10183294;28;20062;-76
2023/09/06 06:18:26;;;;;;;14.77;13.50;;;;;;;;;;10177873;28;20047;-76
2023/09/06 06:23:23;;;;;;;15.27;13.95;;;;;;;;;;10165265;28;20128;-77
2023/09/06 06:28:19;;;;;;;14.40;13.07;;;;;;;;;;10176973;28;20050;-76
2023/09/06 06:33:16;;;;;;;13.90;12.65;;;;;;;;;;10171418;28;20601;-76
2023/09/06 06:38:12;;;;;;;14.25;12.90;;;;;;;;;;10167797;28;20050;-76
2023/09/06 06:43:09;;;;;;;13.65;12.55;;;;;;;;;;10166220;28;20502;-76
2023/09/06 06:48:05;;;;;;;13.50;12.20;;;;;;;;;;10170902;28;20049;-76
2023/09/06 06:53:02;;;;;;;12.93;11.82;;;;;;;;;;10173008;28;20147;-77
2023/09/06 06:57:58;;;;;;;12.57;11.57;;;;;;;;;;10170768;28;20046;-76
2023/09/06 07:02:55;;;;;;;13.15;11.93;;;;;;;;;;10170579;28;20046;-76
2023/09/06 07:07:51;;;;;;;12.68;11.63;;;;;;;;;;10170799;28;20092;-76
2023/09/06 07:12:50;;;;;;;15.20;13.55;;;;;;;;;;10178769;28;20053;-77
2023/09/06 07:17:47;;;;;;;13.57;11.68;;;;;;;;;;10169135;28;20078;-76
2023/09/06 07:22:43;;;;;;;13.45;11.45;;;;;;;;;;10160447;28;20077;-76
2023/09/06 07:27:40;;;;;;;12.00;11.10;;;;;;;;;;10170041;28;20100;-76
2023/09/06 07:32:37;;;;;;;12.50;11.27;;;;;;;;;;10183835;28;20763;-76
2023/09/06 07:37:33;;;;;;;12.25;11.15;;;;;;;;;;10173213;28;20068;-76
2023/09/06 07:42:29;;;;;;;9.73;8.90;;;;;;;;;;10188593;28;20046;-76
2023/09/06 07:47:26;;;;;;;10.13;9.10;;;;;;;;;;10176114;28;20062;-76
2023/09/06 07:52:22;;;;;;;10.20;9.20;;;;;;;;;;10170077;28;20093;-76
2023/09/06 07:57:19;;;;;;;11.00;10.00;;;;;;;;;;10176570;28;20066;-77
2023/09/06 08:02:15;;;;;;;10.85;9.35;;;;;;;;;;10178953;28;20054;-76
2023/09/06 08:07:12;;;;;;;12.30;9.43;;;;;;;;;;10182715;28;20097;-76
2023/09/06 08:12:08;;;;;;;9.38;8.52;;;;;;;;;;10178849;28;20583;-76
2023/09/06 08:17:05;;;;;;;8.55;7.85;;;;;;;;;;10185789;28;20510;-76
2023/09/06 08:22:01;;;;;;;9.23;8.32;;;;;;;;;;10174667;28;20042;-76
2023/09/06 08:26:58;;;;;;;8.70;7.82;;;;;;;;;;10180262;28;20070;-76
2023/09/06 08:31:54;;;;;;;9.80;7.72;;;;;;;;;;10184529;28;20506;-76
2023/09/06 08:36:51;;;;;;;7.97;7.35;;;;;;;;;;10181952;28;20050;-77
2023/09/06 08:41:49;;;;;;;8.82;8.02;;;;;;;;;;10171438;28;20042;-77
2023/09/06 08:46:46;;;;;;;13.82;8.60;;;;;;;;;;10183113;28;20510;-77
2023/09/06 08:51:43;;;;;;;8.70;7.82;;;;;;;;;;10182755;28;20097;-77
2023/09/06 08:56:39;;;;;;;8.02;7.22;;;;;;;;;;10180020;28;20046;-75
2023/09/06 09:01:37;;;;;;;8.27;7.20;;;;;;;;;;10178521;28;20109;-76
2023/09/06 09:06:34;;;;;;;7.80;7.03;;;;;;;;;;10185910;28;20066;-76
2023/09/06 09:11:30;;;;;;;8.80;7.82;;;;;;;;;;10180243;28;20053;-76
2023/09/06 09:16:28;;;;;;;8.07;7.28;;;;;;;;;;10178356;28;20046;-76
2023/09/06 09:21:28;;;;;;;7.72;7.13;;;;;;;;;;10180659;28;20050;-76
2023/09/06 09:26:24;;;;;;;8.20;7.43;;;;;;;;;;10176184;28;20679;-76
2023/09/06 09:31:21;;;;;;;8.45;7.60;;;;;;;;;;10174231;28;20046;-76
2023/09/06 09:36:17;;;;;;;8.38;6.93;;;;;;;;;;10174456;28;20042;-76
2023/09/06 09:41:14;;;;;;;8.15;7.55;;;;;;;;;;10171223;28;20101;-76
2023/09/06 09:46:10;;;;;;;9.90;7.65;;;;;;;;;;10172647;28;20061;-75
2023/09/06 09:51:12;;;;;;;6.90;6.40;;;;;;;;;;10184309;28;20081;-75
2023/09/06 09:56:08;;;;;;;;;;;;;;;;;;10175553;28;20053;-75
2023/09/06 10:01:05;;;;;;;7.90;7.20;;;;;;;;;;10186816;28;20644;-73
2023/09/06 10:06:03;;;;;;;8.57;7.78;;;;;;;;;;10173697;28;20045;-73
2023/09/06 10:10:59;;;;;;;8.05;7.45;;;;;;;;;;10170074;28;20108;-73
2023/09/06 10:15:56;;;;;;;7.70;7.10;;;;;;;;;;10170137;28;20551;-73
2023/09/06 10:20:53;;;;;;;8.13;7.38;;;;;;;;;;10168461;28;20616;-73
2023/09/06 10:25:51;;;;;;;7.80;7.20;;;;;;;;;;10173821;28;20596;-73
2023/09/06 10:30:51;;;;;;;7.57;6.97;;;;;;;;;;10164430;28;20052;-74
2023/09/06 10:35:56;;;;;;;7.75;6.55;;;;;;;;;;10166448;28;20078;-73
2023/09/06 10:40:53;;;;;;;7.45;6.85;;;;;;;;;;10177661;28;20081;-73
2023/09/06 10:45:56;;;;;;;9.82;8.90;;;;;;;;;;10173515;28;20042;-74
2023/09/06 10:51:08;;;;;;;7.15;6.65;;;;;;;;;;10175422;28;20050;-74
2023/09/06 10:56:05;;;;;;;7.68;6.93;;;;;;;;;;10171576;28;20054;-73
2023/09/06 11:01:18;;;;;;;7.32;6.82;;;;;;;;;;10179638;28;20054;-74
2023/09/06 11:06:14;;;;;;;7.03;6.40;;;;;;;;;;10181361;28;20054;-73
2023/09/06 11:11:13;;;;;;;6.40;5.90;;;;;;;;;;10190161;28;20077;-73
2023/09/06 11:16:11;;;;;;;7.07;6.50;;;;;;;;;;10165874;28;20682;-73
2023/09/06 11:21:07;;;;;;;6.95;6.45;;;;;;;;;;10198369;28;20065;-73
2023/09/06 11:26:03;;;;;;;7.57;6.90;;;;;;;;;;10158662;28;20038;-73
2023/09/06 11:31:04;;;;;;;7.40;6.82;;;;;;;;;;10180275;28;20529;-73
2023/09/06 11:36:03;;;;;;;7.22;6.63;;;;;;;;;;10171128;28;20417;-74
2023/09/06 11:41:03;;;;;;;7.35;6.72;;;;;;;;;;10184864;28;20121;-73
2023/09/06 11:46:03;;;;;;;6.68;6.18;;;;;;;;;;10186297;28;20535;-74
2023/09/06 11:51:08;;;;;;;7.27;6.70;;;;;;;;;;10182500;28;20450;-74
2023/09/06 11:56:08;;;;;;;6.95;6.35;;;;;;;;;;10165320;28;20050;-74
2023/09/06 12:01:07;;;;;;;6.97;6.47;;;;;;;;;;10189838;28;20502;-74
2023/09/06 12:06:07;;;;;;;7.22;6.63;;;;;;;;;;10177125;28;20584;-73
2023/09/06 12:11:10;;;;;;;7.35;6.75;;;;;;;;;;10181760;28;20517;-73
2023/09/06 12:16:08;;;;;;;7.47;6.70;;;;;;;;;;10182852;28;20061;-74
2023/09/06 12:21:05;;;;;;;7.13;6.53;;;;;;;;;;10178191;28;20050;-74
2023/09/06 12:26:02;;;;;;;6.65;6.05;;;;;;;;;;10176374;28;20073;-74
2023/09/06 12:31:02;;;;;;;6.75;6.07;;;;;;;;;;10183864;28;20046;-74
2023/09/06 12:36:10;;;;;;;8.00;7.22;;;;;;;;;;10171727;28;20090;-74
2023/09/06 12:41:07;;;;;;;7.68;7.00;;;;;;;;;;10174422;28;20084;-73
2023/09/06 12:46:06;;;;;;;7.80;6.60;;;;;;;;;;10176732;28;20532;-74
2023/09/06 12:51:05;;;;;;;8.02;7.38;;;;;;;;;;10173427;28;20060;-74
2023/09/06 12:56:02;;;;;;;7.18;6.47;;;;;;;;;;10179083;28;20475;-73
2023/09/06 13:01:02;;;;;;;7.15;6.65;;;;;;;;;;10193021;28;20729;-73
2023/09/06 13:06:00;;;;;;;6.97;6.47;;;;;;;;;;10162524;28;20085;-74
2023/09/06 13:10:57;;;;;;;10.02;9.18;;;;;;;;;;10190335;28;20108;-74
2023/09/06 13:15:53;;;;;;;7.53;7.03;;;;;;;;;;10176220;28;20050;-74
2023/09/06 13:20:53;;;;;;;7.03;6.50;;;;;;;;;;10191176;28;20505;-74
2023/09/06 13:25:49;;;;;;;7.18;6.68;;;;;;;;;;10176495;28;20092;-74
2023/09/06 13:30:45;;;;;;;6.78;6.15;;;;;;;;;;10170742;28;20173;-74
2023/09/06 13:35:42;;;;;;;7.80;6.97;;;;;;;;;;10176934;28;20046;-73
2023/09/06 13:40:38;;;;;;;7.13;6.63;;;;;;;;;;10180942;28;20042;-74
2023/09/06 13:45:35;;;;;;;8.32;7.63;;;;;;;;;;10178840;28;20464;-74
2023/09/06 13:50:31;;;;;;;10.93;7.07;;;;;;;;;;10178259;28;20061;-74
2023/09/06 13:55:28;;;;;;;7.07;6.38;;;;;;;;;;10169754;28;20112;-75
2023/09/06 14:00:24;;;;;;;7.78;7.13;;;;;;;;;;10168044;28;20054;-75
2023/09/06 14:05:20;;;;;;;6.32;5.82;;;;;;;;;;10171844;28;20057;-75
2023/09/06 14:10:17;;;;;;;7.28;6.47;;;;;;;;;;10185146;28;20667;-75
2023/09/06 14:15:13;;;;;;;7.93;6.25;;;;;;;;;;10175008;28;20050;-74
2023/09/06 14:20:10;;;;;;;6.90;6.32;;;;;;;;;;10196454;22;20058;-76
2023/09/06 14:25:07;;;;;;;7.40;6.80;;;;;;;;;;10221584;28;20142;-76
2023/09/06 14:30:04;;;;;;;6.90;6.40;;;;;;;;;;10218135;28;20421;-75
2023/09/06 14:35:00;;;;;;;7.78;7.18;;;;;;;;;;10215670;28;20084;-74
2023/09/06 14:39:57;;;;;;;7.75;7.05;;;;;;;;;;10214644;28;20133;-74
2023/09/06 14:44:53;;;;;;;6.60;6.10;;;;;;;;;;10219806;28;20095;-73
2023/09/06 14:49:50;;;;;;;7.32;6.38;;;;;;;;;;10215236;28;20052;-73
2023/09/06 14:54:46;;;;;;;7.57;6.88;;;;;;;;;;10215219;28;20049;-73
2023/09/06 14:59:42;;;;;;;6.75;6.05;;;;;;;;;;10213002;28;20076;-73
2023/09/06 15:04:38;;;;;;;7.15;6.45;;;;;;;;;;10223964;28;20046;-72
2023/09/06 15:09:37;;;;;;;8.30;6.45;;;;;;;;;;10218192;28;20053;-77
2023/09/06 15:14:33;;;;;;;6.70;6.20;;;;;;;;;;10220133;28;20464;-77
2023/09/06 15:19:33;;;;;;;7.07;6.10;;;;;;;;;;10211414;28;20053;-77
2023/09/06 15:24:29;;;;;;;6.57;6.07;;;;;;;;;;10205353;28;21506;-77
2023/09/06 15:29:25;;;;;;;7.15;6.65;;;;;;;;;;10220071;28;20139;-77
2023/09/06 15:34:21;;;;;;;7.18;6.55;;;;;;;;;;10214512;28;20102;-77
2023/09/06 15:39:19;;;;;;;7.15;6.30;;;;;;;;;;10181090;28;20041;-76
2023/09/06 15:44:16;;;;;;;6.95;6.45;;;;;;;;;;10215756;28;20448;-76
2023/09/06 15:49:12;;;;;;;7.78;7.18;;;;;;;;;;10211192;28;20646;-77
2023/09/06 15:54:09;;;;;;;7.10;6.50;;;;;;;;;;10217097;28;20064;-77
2023/09/06 15:59:05;;;;;;;7.88;7.07;;;;;;;;;;10215358;28;20596;-76
2023/09/06 16:04:03;;;;;;;7.47;6.88;;;;;;;;;;10193991;28;20123;-76
2023/09/06 16:08:59;;;;;;;6.72;6.22;;;;;;;;;;10214691;28;20140;-76
2023/09/06 16:13:56;;;;;;;7.20;6.55;;;;;;;;;;10201208;28;20069;-76
2023/09/06 16:18:52;;;;;;;7.65;7.05;;;;;;;;;;10192626;28;20460;-76
2023/09/06 16:23:49;;;;;;;7.70;6.80;;;;;;;;;;10211484;28;20069;-77
2023/09/06 16:28:45;;;;;;;9.20;6.60;;;;;;;;;;10218433;28;20145;-76
2023/09/06 16:33:41;;;;;;;6.72;6.22;;;;;;;;;;10205718;28;20412;-76
2023/09/06 16:38:38;;;;;;;6.75;6.15;;;;;;;;;;10215377;28;20046;-77
2023/09/06 16:43:34;;;;;;;7.10;6.50;;;;;;;;;;10211388;28;20144;-76
2023/09/06 16:48:30;;;;;;;7.55;6.80;;;;;;;;;;10213062;28;20053;-76
2023/09/06 16:53:27;;;;;;;6.97;6.28;;;;;;;;;;10205286;28;20053;-76
2023/09/06 16:58:24;;;;;;;7.78;7.18;;;;;;;;;;10208527;28;20100;-75
2023/09/06 17:03:20;;;;;;;6.95;6.32;;;;;;;;;;10192115;28;20582;-76
2023/09/06 17:08:17;;;;;;;6.95;6.40;;;;;;;;;;10209265;28;20053;-76
2023/09/06 17:13:15;;;;;;;7.43;6.72;;;;;;;;;;10214624;28;20484;-76
2023/09/06 17:18:13;;;;;;;7.90;7.15;;;;;;;;;;10184912;28;20050;-76
2023/09/06 17:23:09;;;;;;;7.40;6.80;;;;;;;;;;10196972;28;20068;-76
2023/09/06 17:28:07;;;;;;;8.57;7.88;;;;;;;;;;10212898;28;20064;-77
2023/09/06 17:33:05;;;;;;;8.13;7.43;;;;;;;;;;10217472;28;20054;-76
2023/09/06 17:38:05;;;;;;;8.02;7.32;;;;;;;;;;10207943;28;20148;-76
2023/09/06 17:43:01;;;;;;;7.60;6.90;;;;;;;;;;10209804;28;20512;-76
2023/09/06 17:48:04;;;;;;;7.65;7.05;;;;;;;;;;10210838;28;20068;-75
2023/09/06 17:53:06;;;;;;;8.70;8.02;;;;;;;;;;10213890;28;20717;-75
2023/09/06 17:58:06;;;;;;;8.02;7.32;;;;;;;;;;10214300;28;20547;-75
2023/09/06 18:03:03;;;;;;;8.00;7.20;;;;;;;;;;10199053;28;20053;-76
2023/09/06 18:08:00;;;;;;;9.60;8.15;;;;;;;;;;10211054;28;20053;-76
2023/09/06 18:12:59;;;;;;;9.48;8.30;;;;;;;;;;10213012;28;20650;-76
2023/09/06 18:17:59;;;;;;;9.20;8.30;;;;;;;;;;10216006;28;20506;-76
2023/09/06 18:22:55;;;;;;;9.00;8.10;;;;;;;;;;10212611;28;20045;-76
2023/09/06 18:27:53;;;;;;;9.45;8.48;;;;;;;;;;10216180;28;20421;-75
2023/09/06 18:32:49;;;;;;;8.98;8.18;;;;;;;;;;10204364;28;20042;-76
2023/09/06 18:37:47;;;;;;;8.98;8.05;;;;;;;;;;10214092;28;20139;-75
2023/09/06 18:42:44;;;;;;;9.27;8.20;;;;;;;;;;10222085;28;20057;-75
2023/09/06 18:47:42;;;;;;;10.23;8.73;;;;;;;;;;10190384;28;20073;-75
2023/09/06 18:52:39;;;;;;;9.63;8.55;;;;;;;;;;10208232;28;20181;-75
2023/09/06 18:57:37;;;;;;;9.57;8.43;;;;;;;;;;10210347;28;20512;-76
2023/09/06 19:02:52;;;;;;;10.40;8.63;;;;;;;;;;10213755;28;20045;-75
2023/09/06 19:07:49;;;;;;;8.35;7.65;;;;;;;;;;10210320;28;20038;-76
2023/09/06 19:12:45;;;;;;;10.15;9.10;;;;;;;;;;10204818;28;20049;-76
2023/09/06 19:17:43;;;;;;;10.50;9.07;;;;;;;;;;10203556;28;20050;-76
2023/09/06 19:22:43;;;;;;;11.07;8.63;;;;;;;;;;10212991;28;20049;-76
2023/09/06 19:27:40;;;;;;;9.50;8.68;;;;;;;;;;10217281;28;20626;-76
2023/09/06 19:32:38;;;;;;;9.30;8.50;;;;;;;;;;10213949;28;20092;-75
2023/09/06 19:37:34;;;;;;;13.27;8.57;;;;;;;;;;10217628;28;20053;-75
2023/09/06 19:42:31;;;;;;;8.60;7.85;;;;;;;;;;10199435;28;20053;-75
2023/09/06 19:47:27;;;;;;;8.98;8.07;;;;;;;;;;10211458;28;20065;-74
2023/09/06 19:52:24;;;;;;;9.65;8.55;;;;;;;;;;10222434;28;20056;-74
2023/09/06 19:57:20;;;;;;;9.45;8.57;;;;;;;;;;10220699;28;20072;-74
2023/09/06 20:02:17;;;;;;;8.73;8.02;;;;;;;;;;10227379;28;20045;-76
2023/09/06 20:07:14;;;;;;;9.15;8.15;;;;;;;;;;10217343;28;20100;-76
2023/09/06 20:12:10;;;;;;;9.25;8.45;;;;;;;;;;10223912;28;20099;-76
2023/09/06 20:17:06;;;;;;;9.77;8.75;;;;;;;;;;10221169;28;20504;-75
2023/09/06 20:22:03;;;;;;;9.73;8.93;;;;;;;;;;10216849;28;20045;-71
2023/09/06 20:26:59;;;;;;;9.07;8.38;;;;;;;;;;10214967;28;20537;-72
2023/09/06 20:31:56;;;;;;;9.73;8.90;;;;;;;;;;10228801;28;20501;-72
2023/09/06 20:36:52;;;;;;;9.55;8.65;;;;;;;;;;10220040;28;20140;-74
2023/09/06 20:41:49;;;;;;;9.73;8.77;;;;;;;;;;10217006;28;20049;-72
2023/09/06 20:46:45;;;;;;;8.73;7.97;;;;;;;;;;10213995;28;20563;-72
2023/09/06 20:51:44;;;;;;;9.43;8.63;;;;;;;;;;10213348;28;20055;-71
2023/09/06 20:56:41;;;;;;;10.15;8.90;;;;;;;;;;10211352;28;20050;-71
2023/09/06 21:01:38;;;;;;;11.30;8.75;;;;;;;;;;10223641;28;20057;-70
2023/09/06 21:06:34;;;;;;;10.90;8.02;;;;;;;;;;10214432;28;20053;-71
2023/09/06 21:11:31;;;;;;;9.55;8.65;;;;;;;;;;10223643;28;20049;-71
2023/09/06 21:16:28;;;;;;;11.85;8.68;;;;;;;;;;10218734;28;20075;-70
2023/09/06 21:21:24;;;;;;;10.27;8.65;;;;;;;;;;10212849;28;20702;-72
2023/09/06 21:26:20;;;;;;;9.18;8.27;;;;;;;;;;10220450;28;21151;-70
2023/09/06 21:31:17;;;;;;;9.25;8.30;;;;;;;;;;10211050;28;20053;-71
2023/09/06 21:36:13;;;;;;;8.80;8.00;;;;;;;;;;10224255;28;20148;-70
2023/09/06 21:41:10;;;;;;;8.43;7.65;;;;;;;;;;10241119;23;20052;-70
2023/09/06 21:46:06;;;;;;;8.65;7.85;;;;;;;;;;10254158;28;20076;-70
2023/09/06 21:51:06;;;;;;;9.93;8.90;;;;;;;;;;10259026;28;20080;-71
2023/09/06 21:56:03;;;;;;;9.32;8.43;;;;;;;;;;10262250;28;20811;-70
2023/09/06 22:01:02;;;;;;;9.65;8.75;;;;;;;;;;10260412;28;20132;-70
2023/09/06 22:05:59;;;;;;;10.32;9.43;;;;;;;;;;10259846;28;20106;-70
2023/09/06 22:10:55;;;;;;;9.35;8.45;;;;;;;;;;10252093;28;20061;-70
2023/09/06 22:15:51;;;;;;;9.50;8.57;;;;;;;;;;10254823;28;20059;-69
2023/09/06 22:20:48;;;;;;;10.02;9.10;;;;;;;;;;10257890;28;20152;-70
2023/09/06 22:25:44;;;;;;;15.65;9.73;;;;;;;;;;10252609;28;20424;-69
2023/09/06 22:30:41;;;;;;;9.73;8.82;;;;;;;;;;10256120;28;20535;-69
2023/09/06 22:35:38;;;;;;;9.90;9.10;;;;;;;;;;10248259;28;20681;-69
2023/09/06 22:40:34;;;;;;;10.80;9.77;;;;;;;;;;10253010;28;20150;-69
2023/09/06 22:45:30;;;;;;;13.57;9.77;;;;;;;;;;10252430;28;20044;-69
2023/09/06 22:50:26;;;;;;;10.75;9.80;;;;;;;;;;10258783;28;20111;-69
2023/09/06 22:55:23;;;;;;;10.57;9.57;;;;;;;;;;10260401;28;20052;-69
2023/09/06 23:00:19;;;;;;;10.32;9.32;;;;;;;;;;10257724;28;20065;-69
2023/09/06 23:05:16;;;;;;;11.20;10.20;;;;;;;;;;10244400;28;20056;-70
2023/09/06 23:10:14;;;;;;;10.43;9.43;;;;;;;;;;10258039;28;21555;-70
2023/09/06 23:15:10;;;;;;;11.90;9.05;;;;;;;;;;10258116;28;20084;-69
2023/09/06 23:20:13;;;;;;;10.35;9.32;;;;;;;;;;10256970;28;20061;-69
2023/09/06 23:25:13;;;;;;;10.25;9.25;;;;;;;;;;10237556;28;20053;-69
2023/09/06 23:30:16;;;;;;;9.73;8.77;;;;;;;;;;10256148;28;20065;-70
2023/09/06 23:35:14;;;;;;;11.80;9.23;;;;;;;;;;10255934;28;20083;-70
2023/09/06 23:40:23;;;;;;;10.68;9.75;;;;;;;;;;10251840;28;20054;-67
2023/09/06 23:45:22;;;;;;;11.05;9.95;;;;;;;;;;10244752;28;20073;-69
2023/09/06 23:50:19;;;;;;;10.60;9.63;;;;;;;;;;10259180;28;20056;-69
2023/09/06 23:55:15;;;;;;;9.88;8.88;;;;;;;;;;10258892;28;20083;-68
